Flight Track Log - Related Links

Times and Time Zones

All times are in EDT time to prevent confusion due to time zone crossing. See the N762NC flight status page for this flight to view local times or setup timezone preferences in your user account.


Time Position Orientation Groundspeed Altitude Reporting Facility
EDT Latitude Longitude Course Direction KTS MPH feet Rate Location/Type
Thu 04:05:55 PM 34.8108 -82.3008 273° West 208 239 4,500  Level Atlanta Center
Thu 04:06:55 PM 34.8286 -82.3814 285° West 250 288 6,700 2,200 Climbing Atlanta Center
Thu 04:07:55 PM 34.8483 -82.4519 289° West 250 288 8,900 1,950 Climbing Atlanta Center
Thu 04:08:00 PM 34.7146 -82.5451 261° West  Level Estimated
Thu 04:08:55 PM 34.8203 -82.5383 248° West 244 281 10,600  Level Atlanta Center
Thu 04:09:00 PM 34.6783 -82.6101 252° West  Level Estimated
Thu 04:09:55 PM 34.7817 -82.6275 242° Southwest 266 306 12,400  Level Atlanta Center
Thu 04:10:00 PM 34.6814 -82.6887 273° West  Level FlightAware Approximate
Thu 04:10:55 PM 34.7472 -82.7319 248° West 301 346 14,200  Level Atlanta Center
Thu 04:11:55 PM 34.7253 -82.8308 255° West 315 362 20,000 2,000 Climbing Atlanta Center
Thu 04:12:55 PM 34.7036 -82.9422 257° West 327 376 18,200 -200 Descending Atlanta Center
Thu 04:13:55 PM 34.6583 -83.0389 240° Southwest 327 376 19,600 900 Climbing Atlanta Center
Thu 04:14:55 PM 34.6217 -83.1403 246° West 343 395 20,000 200 Climbing Atlanta Center
Thu 04:15:55 PM 34.5806 -83.2417 244° Southwest 337 388 20,000  Level Atlanta Center
Thu 04:16:55 PM 34.5353 -83.3303 238° Southwest 322 371 20,000  Level Atlanta Center
Thu 04:17:55 PM 34.4711 -83.4189 229° Southwest 337 388 20,000  Level Atlanta Center
Thu 04:18:55 PM 34.4108 -83.4950 226° Southwest 353 406 20,000 -600 Level Atlanta Center
Thu 04:19:55 PM 34.3444 -83.5833 228° Southwest 358 412 18,800 -1,550 Descending Atlanta Center
Thu 04:20:55 PM 34.2717 -83.6667 223° Southwest 356 410 16,900 -1,900 Descending Atlanta Center
Thu 04:21:55 PM 34.2072 -83.7475 226° Southwest 350 403 15,000 1,550 Descending Atlanta Center
Thu 04:22:55 PM 34.1425 -83.8203 223° Southwest 332 382 20,000 -1,500 Climbing Atlanta Center
Thu 04:23:55 PM 34.0800 -83.8933 224° Southwest 320 368 12,000 -5,086 Descending Atlanta Center
Thu 04:24:40 PM 34.0333 -83.9500 225° Southwest 243 280 11,100 -1,371 Descending Atlanta TRACON
Thu 04:25:40 PM 33.9500 -83.9500 180° South 276 318 9,600 -1,050 Descending Atlanta TRACON
Thu 04:26:40 PM 33.8833 -83.9333 168° South 250 288 9,000 -750 Descending Atlanta TRACON
Thu 04:27:40 PM 33.8000 -83.9333 180° South 265 305 8,100 -800 Descending Atlanta TRACON
Thu 04:28:40 PM 33.7333 -83.9500 192° South 256 295 7,400 -550 Descending Atlanta TRACON
Thu 04:29:40 PM 33.6667 -83.9667 192° South 252 290 7,000 -600 Descending Atlanta TRACON
Thu 04:30:40 PM 33.6333 -84.0333 239° Southwest 241 277 6,200 -500 Descending Atlanta TRACON
Thu 04:31:40 PM 33.6333 -84.1000 270° West 192 221 6,000 -500 Descending Atlanta TRACON
Thu 04:32:40 PM 33.6333 -84.1500 270° West 186 214 5,200 -900 Descending Atlanta TRACON
Thu 04:33:40 PM 33.6333 -84.2167 270° West 182 209 4,200 -992 Descending Atlanta TRACON
Thu 04:34:41 PM 33.6333 -84.2833 270° West 177 204 3,200 -942 Descending Atlanta TRACON
Thu 04:35:41 PM 33.6333 -84.3333 270° West 162 186 2,300 -807 Descending Atlanta TRACON
Thu 04:36:40 PM 33.6333 -84.3833 270° West 130 150 1,600 -712 Descending Atlanta TRACON

Login

Don't have an account? Register now (free) for customized features, flight alerts, and more!